createdAt,value
2022-12-13T00:00:50.450Z,82.87
2022-12-13T00:02:51.872Z,82.45
2022-12-13T00:04:53.354Z,82.74
2022-12-13T00:06:54.865Z,82.94
2022-12-13T00:08:56.974Z,82.76
2022-12-13T00:11:03.268Z,82.20
2022-12-13T00:13:04.743Z,82.61
2022-12-13T00:15:07.058Z,82.83
2022-12-13T00:17:08.489Z,82.35
2022-12-13T00:19:09.909Z,82.64
2022-12-13T00:21:16.696Z,82.72
2022-12-13T00:23:18.648Z,82.78
2022-12-13T00:25:21.393Z,83.01
2022-12-13T00:27:23.302Z,82.90
2022-12-13T00:29:24.779Z,83.04
2022-12-13T00:31:56.546Z,82.94
2022-12-13T00:33:49.127Z,83.18
2022-12-13T00:35:50.581Z,83.24
2022-12-13T00:37:52.141Z,83.00
2022-12-13T00:39:53.569Z,83.05
2022-12-13T00:41:55.113Z,82.82
2022-12-13T00:43:56.919Z,83.12
2022-12-13T00:45:58.384Z,82.63
2022-12-13T00:48:00.193Z,82.74
2022-12-13T00:50:02.371Z,83.00
2022-12-13T00:52:04.034Z,82.56
2022-12-13T00:54:06.262Z,82.56
2022-12-13T00:56:12.837Z,82.29
2022-12-13T00:58:14.265Z,82.00
2022-12-13T01:00:15.805Z,81.74
2022-12-13T01:02:17.288Z,81.81
2022-12-13T01:04:18.801Z,81.42
2022-12-13T01:06:23.262Z,81.87
2022-12-13T01:08:24.766Z,81.83
2022-12-13T01:10:26.234Z,81.81
2022-12-13T01:12:27.675Z,81.98
2022-12-13T01:14:30.179Z,82.19
2022-12-13T01:16:31.755Z,82.45
2022-12-13T01:18:33.591Z,81.99
2022-12-13T01:20:35.057Z,82.67
2022-12-13T01:22:36.501Z,82.59
2022-12-13T01:24:38.571Z,81.92
2022-12-13T01:26:40.066Z,82.17
2022-12-13T01:28:41.739Z,82.03
2022-12-13T01:30:43.216Z,82.10
2022-12-13T01:32:44.785Z,82.19
2022-12-13T01:34:46.250Z,82.25
2022-12-13T01:36:48.325Z,82.24
2022-12-13T01:38:49.846Z,82.03
2022-12-13T01:40:58.989Z,82.52
2022-12-13T01:43:00.561Z,82.46
2022-12-13T01:45:07.189Z,82.63
2022-12-13T01:47:09.552Z,82.19
2022-12-13T01:49:19.357Z,82.58
2022-12-13T01:51:34.229Z,82.39
2022-12-13T01:53:39.246Z,82.49
2022-12-13T01:55:45.402Z,82.40
2022-12-13T01:57:49.505Z,82.44
2022-12-13T01:59:52.600Z,82.99
2022-12-13T02:01:54.046Z,83.20
2022-12-13T02:04:02.658Z,82.80
2022-12-13T02:06:12.926Z,82.92
2022-12-13T02:08:16.051Z,82.64
2022-12-13T02:10:17.765Z,82.31
2022-12-13T02:12:19.222Z,82.19
2022-12-13T02:14:20.687Z,81.87
2022-12-13T02:16:22.976Z,81.53
2022-12-13T02:18:36.709Z,81.48
2022-12-13T02:20:47.576Z,82.38
2022-12-13T02:23:23.872Z,83.93
2022-12-13T02:26:09.730Z,84.98
2022-12-13T02:28:40.604Z,85.90
2022-12-13T02:30:49.376Z,85.95
2022-12-13T02:33:03.411Z,85.82
2022-12-13T02:35:11.593Z,85.66
2022-12-13T02:37:22.900Z,85.39
2022-12-13T02:39:49.932Z,85.13
2022-12-13T02:41:54.473Z,84.93
2022-12-13T02:44:01.247Z,84.68
2022-12-13T02:46:05.344Z,84.43
2022-12-13T02:48:10.734Z,84.76
2022-12-13T02:50:14.781Z,84.82
2022-12-13T02:52:22.462Z,84.65
2022-12-13T02:54:24.824Z,85.13
2022-12-13T02:56:26.299Z,85.60
2022-12-13T02:58:34.979Z,85.42
2022-12-13T03:00:47.332Z,85.87
2022-12-13T03:02:51.743Z,85.37
2022-12-13T03:05:32.951Z,85.40
2022-12-13T03:07:43.909Z,85.63
2022-12-13T03:09:54.047Z,85.69
2022-12-13T03:12:37.128Z,86.05
2022-12-13T03:14:55.310Z,85.36
2022-12-13T03:17:01.186Z,85.67
2022-12-13T03:19:06.026Z,85.16
2022-12-13T03:21:09.550Z,85.12
2022-12-13T03:23:11.307Z,84.71
2022-12-13T03:25:13.225Z,84.75
2022-12-13T03:27:32.997Z,84.62
2022-12-13T03:29:34.464Z,84.91
2022-12-13T03:31:35.928Z,85.06
2022-12-13T03:33:38.819Z,85.57
2022-12-13T03:35:45.798Z,85.67
2022-12-13T03:37:48.000Z,85.92
2022-12-13T03:39:49.700Z,85.67
2022-12-13T03:41:51.543Z,85.73
2022-12-13T03:43:53.023Z,85.83
2022-12-13T03:45:54.599Z,84.94
2022-12-13T03:47:56.061Z,85.17
2022-12-13T03:49:57.523Z,85.23
2022-12-13T03:52:18.947Z,85.44
2022-12-13T03:54:20.423Z,84.99
2022-12-13T03:56:21.878Z,85.22
2022-12-13T03:58:23.765Z,85.36
2022-12-13T04:00:25.239Z,85.25
2022-12-13T04:02:30.680Z,85.42
2022-12-13T04:04:33.087Z,85.78
2022-12-13T04:06:34.789Z,85.59
2022-12-13T04:08:37.334Z,85.92
2022-12-13T04:10:38.869Z,86.19
2022-12-13T04:13:00.470Z,85.92
2022-12-13T04:15:02.046Z,86.37
2022-12-13T04:17:03.618Z,86.50
2022-12-13T04:19:05.199Z,86.75
2022-12-13T04:21:07.189Z,86.30
2022-12-13T04:23:10.402Z,86.70
2022-12-13T04:25:12.532Z,87.01
2022-12-13T04:27:14.174Z,87.43
2022-12-13T04:29:15.764Z,88.00
2022-12-13T04:31:17.361Z,87.80
2022-12-13T04:33:20.974Z,88.29
2022-12-13T04:35:22.676Z,88.34
2022-12-13T04:37:24.166Z,88.68
2022-12-13T04:39:25.633Z,88.37
2022-12-13T04:41:37.635Z,89.00
2022-12-13T04:43:39.066Z,88.63
2022-12-13T04:45:41.002Z,88.70
2022-12-13T04:47:42.608Z,89.19
2022-12-13T04:49:44.145Z,89.52
2022-12-13T04:51:47.535Z,89.49
2022-12-13T04:53:49.981Z,89.61
2022-12-13T04:55:52.666Z,89.55
2022-12-13T04:57:54.119Z,89.78
2022-12-13T04:59:55.553Z,90.05
2022-12-13T05:01:57.056Z,90.02
2022-12-13T05:03:58.587Z,90.36
2022-12-13T05:06:00.034Z,89.61
2022-12-13T05:08:01.691Z,89.68
2022-12-13T05:10:03.909Z,90.20
2022-12-13T05:12:05.645Z,90.25
2022-12-13T05:14:23.815Z,90.63
2022-12-13T05:16:25.517Z,90.50
2022-12-13T05:18:27.823Z,89.91
2022-12-13T05:20:29.292Z,90.13
2022-12-13T05:22:30.789Z,90.77
2022-12-13T05:24:32.289Z,90.96
2022-12-13T05:26:33.735Z,90.95
2022-12-13T05:28:35.557Z,90.95
2022-12-13T05:30:41.021Z,91.26
2022-12-13T05:32:43.487Z,90.97
2022-12-13T05:34:46.198Z,91.18
2022-12-13T05:36:47.646Z,91.08
2022-12-13T05:38:49.133Z,90.69
2022-12-13T05:40:50.851Z,90.42
2022-12-13T05:43:01.256Z,91.47
2022-12-13T05:45:03.577Z,90.85
2022-12-13T05:47:05.063Z,90.67
2022-12-13T05:49:06.570Z,90.67
2022-12-13T05:51:10.125Z,91.29
2022-12-13T05:53:13.225Z,91.43
2022-12-13T05:55:31.901Z,90.83
2022-12-13T05:57:34.091Z,91.12
2022-12-13T05:59:35.691Z,91.32
2022-12-13T06:01:37.395Z,90.95
2022-12-13T06:03:45.649Z,91.03
2022-12-13T06:05:47.289Z,91.81
2022-12-13T06:07:52.182Z,92.00
2022-12-13T06:10:09.609Z,91.23
2022-12-13T06:12:32.058Z,91.73
2022-12-13T06:14:33.655Z,91.98
2022-12-13T06:16:35.515Z,92.38
2022-12-13T06:18:37.622Z,92.56
2022-12-13T06:20:39.133Z,92.72
2022-12-13T06:22:40.572Z,93.27
2022-12-13T06:24:42.319Z,93.58
2022-12-13T06:26:45.356Z,93.59
2022-12-13T06:28:47.205Z,93.99
2022-12-13T06:30:52.244Z,94.12
2022-12-13T06:32:53.756Z,93.65
2022-12-13T06:34:55.210Z,94.32
2022-12-13T06:36:58.495Z,93.92
2022-12-13T06:39:04.088Z,94.11
2022-12-13T06:41:11.152Z,94.25
2022-12-13T06:43:12.625Z,94.58
2022-12-13T06:45:14.187Z,94.76
2022-12-13T06:47:31.895Z,94.44
2022-12-13T06:49:33.825Z,94.58
2022-12-13T06:51:35.370Z,95.07
2022-12-13T06:53:38.725Z,94.48
2022-12-13T06:55:40.254Z,94.68
2022-12-13T06:57:41.982Z,94.93
2022-12-13T06:59:43.886Z,95.09
2022-12-13T07:01:50.678Z,95.34
2022-12-13T07:03:55.994Z,95.70
2022-12-13T07:06:03.413Z,95.39
2022-12-13T07:08:05.134Z,95.84
2022-12-13T07:10:06.906Z,96.03
2022-12-13T07:12:14.240Z,95.75
2022-12-13T07:14:15.681Z,95.90
2022-12-13T07:16:17.584Z,95.61
2022-12-13T07:18:19.266Z,96.39
2022-12-13T07:20:22.642Z,96.70
2022-12-13T07:22:24.114Z,96.56
2022-12-13T07:24:25.547Z,96.12
2022-12-13T07:26:27.086Z,97.07
2022-12-13T07:28:28.963Z,96.88
2022-12-13T07:30:41.073Z,97.03
2022-12-13T07:32:43.222Z,97.35
2022-12-13T07:34:44.655Z,97.28
2022-12-13T07:36:46.232Z,96.90
2022-12-13T07:38:55.362Z,97.29
2022-12-13T07:40:57.958Z,97.98
2022-12-13T07:42:59.476Z,97.43
2022-12-13T07:45:01.032Z,98.06
2022-12-13T07:47:02.589Z,98.32
2022-12-13T07:49:05.228Z,97.81
2022-12-13T07:51:13.992Z,97.85
2022-12-13T07:53:15.371Z,97.68
2022-12-13T07:55:17.777Z,98.36
2022-12-13T07:57:19.221Z,97.81
2022-12-13T07:59:28.783Z,97.99
2022-12-13T08:01:36.722Z,98.06
2022-12-13T08:03:39.117Z,98.47
2022-12-13T08:05:40.622Z,98.50
2022-12-13T08:07:42.102Z,98.49
2022-12-13T08:09:48.012Z,98.07
2022-12-13T08:11:53.012Z,98.86
2022-12-13T08:13:54.943Z,98.37
2022-12-13T08:16:01.066Z,99.11
2022-12-13T08:18:03.952Z,99.13
2022-12-13T08:20:05.799Z,99.13
2022-12-13T08:22:14.213Z,99.44
2022-12-13T08:24:16.038Z,98.48
2022-12-13T08:26:17.532Z,98.75
2022-12-13T08:28:19.105Z,98.37
2022-12-13T08:30:23.089Z,98.75
2022-12-13T08:32:26.032Z,99.12
2022-12-13T08:34:27.506Z,99.22
2022-12-13T08:36:28.952Z,99.31
2022-12-13T08:38:30.408Z,99.08
2022-12-13T08:40:32.415Z,99.17
2022-12-13T08:42:33.905Z,99.37
2022-12-13T08:44:35.359Z,99.61
2022-12-13T08:46:36.858Z,99.40
2022-12-13T08:48:44.512Z,99.20
2022-12-13T08:50:46.351Z,99.13
2022-12-13T08:52:47.866Z,98.88
2022-12-13T08:54:49.500Z,99.70
2022-12-13T08:56:51.044Z,99.49
2022-12-13T08:58:52.538Z,99.62
2022-12-13T09:00:54.097Z,99.52
2022-12-13T09:02:57.870Z,99.92
2022-12-13T09:04:59.319Z,99.85
2022-12-13T09:07:01.394Z,99.48
2022-12-13T09:09:03.867Z,100.00
2022-12-13T09:11:10.491Z,100.00
2022-12-13T09:13:13.129Z,100.00
2022-12-13T09:15:34.987Z,100.00
2022-12-13T09:17:37.606Z,100.00
2022-12-13T09:19:39.264Z,100.00
2022-12-13T09:21:43.196Z,100.00
2022-12-13T09:23:45.645Z,100.00
2022-12-13T09:26:05.240Z,100.00
2022-12-13T09:28:08.956Z,100.00
2022-12-13T09:30:14.500Z,100.00
2022-12-13T09:32:16.096Z,100.00
2022-12-13T09:34:17.562Z,100.00
2022-12-13T09:36:20.910Z,100.00
2022-12-13T09:38:22.479Z,100.00
2022-12-13T09:40:27.297Z,100.00
2022-12-13T09:42:31.255Z,100.00
2022-12-13T09:44:45.201Z,100.00
2022-12-13T09:46:52.692Z,100.00
2022-12-13T09:49:01.757Z,100.00
2022-12-13T09:51:18.177Z,100.00
2022-12-13T09:53:25.371Z,100.00
2022-12-13T09:55:41.934Z,100.00
2022-12-13T09:57:44.210Z,100.00
2022-12-13T09:59:47.451Z,100.00
2022-12-13T10:01:49.077Z,100.00
2022-12-13T10:03:53.294Z,100.00
2022-12-13T10:06:13.813Z,100.00
2022-12-13T10:08:45.115Z,100.00
2022-12-13T10:10:46.587Z,100.00
2022-12-13T10:12:56.099Z,100.00
2022-12-13T10:15:02.833Z,100.00
2022-12-13T10:17:08.704Z,100.00
2022-12-13T10:19:29.283Z,100.00
2022-12-13T10:21:38.774Z,100.00
2022-12-13T10:24:15.285Z,100.00
2022-12-13T10:26:02.837Z,100.00
2022-12-13T10:28:06.304Z,100.00
2022-12-13T10:30:12.106Z,100.00
2022-12-13T10:32:14.081Z,100.00
2022-12-13T10:34:28.330Z,99.41
2022-12-13T10:36:38.460Z,99.21
2022-12-13T10:38:43.803Z,98.86
2022-12-13T10:40:45.858Z,99.11
2022-12-13T10:43:06.382Z,98.44
2022-12-13T10:45:16.178Z,98.76
2022-12-13T10:47:26.274Z,98.72
2022-12-13T10:49:37.593Z,99.13
2022-12-13T10:51:40.175Z,99.04
2022-12-13T10:53:49.936Z,99.00
2022-12-13T10:55:56.118Z,98.62
2022-12-13T10:58:07.547Z,98.64
2022-12-13T11:00:32.260Z,99.62
2022-12-13T11:02:33.707Z,99.86
2022-12-13T11:04:35.987Z,99.23
2022-12-13T11:06:45.806Z,98.38
2022-12-13T11:08:47.363Z,98.38
2022-12-13T11:11:00.710Z,98.91
2022-12-13T11:13:05.702Z,97.37
2022-12-13T11:15:14.523Z,95.78
2022-12-13T11:17:17.296Z,93.56
2022-12-13T11:19:21.652Z,91.22
2022-12-13T11:21:31.122Z,89.61
2022-12-13T11:23:37.843Z,88.07
2022-12-13T11:25:40.839Z,84.83
2022-12-13T11:27:59.663Z,82.59
2022-12-13T11:30:03.749Z,82.48
2022-12-13T11:32:10.833Z,81.66
2022-12-13T11:34:12.304Z,79.54
2022-12-13T11:36:25.599Z,79.74
2022-12-13T11:39:26.903Z,80.97
2022-12-13T11:41:33.890Z,81.82
2022-12-13T11:43:42.539Z,82.69
2022-12-13T11:45:51.031Z,83.70
2022-12-13T11:47:58.689Z,83.91
2022-12-13T11:50:05.422Z,84.14
2022-12-13T11:52:14.223Z,84.79
2022-12-13T11:54:23.520Z,85.60
2022-12-13T11:56:31.637Z,85.31
2022-12-13T11:59:10.214Z,85.02
2022-12-13T12:01:18.192Z,84.52
2022-12-13T12:03:41.960Z,84.58
2022-12-13T12:06:09.332Z,85.29
2022-12-13T12:08:43.117Z,84.50
2022-12-13T12:10:50.185Z,83.73
2022-12-13T12:13:04.602Z,84.04
2022-12-13T12:15:15.958Z,84.72
2022-12-13T12:17:23.199Z,85.12
2022-12-13T12:19:37.034Z,85.24
2022-12-13T12:22:13.249Z,85.06
2022-12-13T12:24:37.946Z,85.58
2022-12-13T12:26:51.419Z,84.65
2022-12-13T12:29:08.142Z,85.20
2022-12-13T12:31:29.434Z,85.66
2022-12-13T12:34:00.801Z,86.84
2022-12-13T12:36:16.126Z,87.12
2022-12-13T12:38:27.128Z,87.84
2022-12-13T12:41:07.510Z,87.98
2022-12-13T12:43:25.947Z,88.34
2022-12-13T12:46:02.073Z,88.24
2022-12-13T12:50:51.690Z,88.87
2022-12-13T12:53:10.581Z,88.86
2022-12-13T12:55:15.051Z,89.14
2022-12-13T12:57:39.528Z,88.77
2022-12-13T13:00:09.553Z,88.47
2022-12-13T13:02:31.480Z,88.27
2022-12-13T13:04:39.236Z,88.90
2022-12-13T13:06:47.936Z,88.92
2022-12-13T13:09:05.125Z,88.79
2022-12-13T13:11:23.837Z,89.03
2022-12-13T13:13:45.975Z,89.05
2022-12-13T13:15:56.262Z,88.75
2022-12-13T13:17:59.715Z,88.90
2022-12-13T13:20:24.528Z,89.18
2022-12-13T13:22:32.271Z,89.27
2022-12-13T13:24:34.769Z,89.10
2022-12-13T13:26:39.235Z,89.10
2022-12-13T13:28:40.727Z,89.02
2022-12-13T13:31:04.058Z,89.03
2022-12-13T13:33:38.915Z,89.09
2022-12-13T13:35:43.422Z,89.43
2022-12-13T13:37:47.899Z,88.99
2022-12-13T13:40:02.109Z,88.99
2022-12-13T13:42:20.882Z,88.90
2022-12-13T13:44:54.755Z,89.08
2022-12-13T13:47:17.177Z,89.47
2022-12-13T13:49:18.669Z,89.40
2022-12-13T13:51:49.415Z,89.00
2022-12-13T13:54:29.931Z,88.74
2022-12-13T13:56:45.004Z,89.13
2022-12-13T13:59:06.304Z,89.05
2022-12-13T14:01:45.460Z,89.23
2022-12-13T14:04:14.912Z,89.34
2022-12-13T14:06:43.948Z,89.19
2022-12-13T14:08:59.170Z,89.21
2022-12-13T14:11:12.507Z,89.29
2022-12-13T14:13:32.480Z,89.44
2022-12-13T14:16:12.184Z,89.20
2022-12-13T14:18:40.209Z,89.45
2022-12-13T14:21:26.183Z,89.62
2022-12-13T14:23:53.692Z,90.03
2022-12-13T14:26:01.082Z,90.14
2022-12-13T14:28:27.558Z,90.23
2022-12-13T14:30:29.768Z,90.35
2022-12-13T14:32:37.099Z,90.33
2022-12-13T14:34:39.410Z,90.43
2022-12-13T14:36:44.001Z,90.47
2022-12-13T14:38:48.045Z,90.39
2022-12-13T14:40:52.832Z,90.65
2022-12-13T14:42:57.509Z,90.52
2022-12-13T14:45:31.223Z,90.31
2022-12-13T14:47:33.998Z,90.59
2022-12-13T14:49:39.453Z,90.74
2022-12-13T14:51:41.659Z,90.76
2022-12-13T14:53:43.580Z,91.09
2022-12-13T14:56:27.616Z,91.20
2022-12-13T14:58:29.642Z,91.21
2022-12-13T15:00:35.374Z,91.23
2022-12-13T15:02:36.895Z,91.35
2022-12-13T15:04:38.410Z,91.49
2022-12-13T15:06:39.975Z,91.21
2022-12-13T15:08:49.619Z,91.33
2022-12-13T15:10:54.596Z,91.68
2022-12-13T15:12:56.271Z,91.32
2022-12-13T15:15:05.377Z,91.37
2022-12-13T15:17:06.950Z,91.39
2022-12-13T15:19:31.307Z,91.24
2022-12-13T15:21:33.696Z,91.28
2022-12-13T15:23:48.728Z,91.70
2022-12-13T15:26:03.527Z,91.57
2022-12-13T15:28:05.994Z,91.64
2022-12-13T15:30:14.158Z,91.80
2022-12-13T15:32:19.145Z,91.76
2022-12-13T15:34:34.465Z,91.54
2022-12-13T15:36:38.466Z,91.70
2022-12-13T15:38:55.481Z,91.33
2022-12-13T15:40:57.145Z,91.35
2022-12-13T15:42:58.800Z,91.31
2022-12-13T15:45:03.129Z,91.15
2022-12-13T15:47:11.264Z,91.01
2022-12-13T15:49:35.686Z,90.74
2022-12-13T15:52:16.787Z,90.79
2022-12-13T15:54:21.806Z,90.82
2022-12-13T15:56:39.220Z,90.64
2022-12-13T15:58:40.675Z,90.37
2022-12-13T16:00:48.930Z,90.35
2022-12-13T16:03:16.983Z,89.78
2022-12-13T16:05:29.296Z,90.25
2022-12-13T16:07:39.825Z,90.30
2022-12-13T16:09:41.293Z,89.72
2022-12-13T16:11:49.964Z,89.51
2022-12-13T16:13:51.454Z,89.77
2022-12-13T16:16:26.947Z,89.54
2022-12-13T16:18:41.250Z,89.41
2022-12-13T16:20:44.023Z,89.42
2022-12-13T16:22:45.936Z,89.02
2022-12-13T16:24:48.756Z,89.12
2022-12-13T16:26:50.491Z,89.49
2022-12-13T16:28:53.367Z,89.45
2022-12-13T16:31:02.028Z,89.62
2022-12-13T16:33:18.768Z,89.03
2022-12-13T16:35:25.146Z,89.73
2022-12-13T16:37:27.518Z,89.66
2022-12-13T16:39:29.109Z,89.38
2022-12-13T16:41:31.378Z,88.97
2022-12-13T16:43:37.607Z,88.06
2022-12-13T16:45:45.698Z,88.00
2022-12-13T16:47:49.447Z,88.49
2022-12-13T16:49:51.113Z,88.25
2022-12-13T16:51:53.191Z,87.94
2022-12-13T16:53:54.649Z,88.00
2022-12-13T16:55:58.359Z,88.53
2022-12-13T16:58:03.864Z,88.33
2022-12-13T17:00:09.897Z,88.46
2022-12-13T17:02:17.665Z,87.59
2022-12-13T17:04:22.420Z,87.92
2022-12-13T17:06:24.920Z,87.65
2022-12-13T17:08:26.394Z,87.15
2022-12-13T17:10:28.282Z,87.08
2022-12-13T17:12:29.807Z,87.18
2022-12-13T17:14:31.240Z,87.71
2022-12-13T17:16:33.122Z,87.29
2022-12-13T17:18:34.600Z,86.95
2022-12-13T17:20:36.405Z,87.57
2022-12-13T17:22:38.429Z,86.92
2022-12-13T17:24:40.055Z,87.54
2022-12-13T17:26:54.190Z,87.07
2022-12-13T17:28:56.650Z,87.20
2022-12-13T17:31:06.296Z,87.56
2022-12-13T17:33:09.784Z,88.01
2022-12-13T17:35:16.399Z,87.96
2022-12-13T17:37:19.834Z,88.29
2022-12-13T17:39:21.397Z,87.28
2022-12-13T17:41:22.847Z,87.86
2022-12-13T17:43:33.048Z,87.58
2022-12-13T17:45:36.454Z,87.73
2022-12-13T17:47:39.231Z,88.46
2022-12-13T17:49:40.823Z,88.42
2022-12-13T17:51:42.357Z,88.79
2022-12-13T17:53:52.779Z,88.70
2022-12-13T17:55:56.621Z,88.64
2022-12-13T17:58:04.136Z,88.57
2022-12-13T18:00:06.897Z,88.24
2022-12-13T18:02:11.114Z,88.46
2022-12-13T18:04:13.018Z,88.76
2022-12-13T18:06:15.433Z,87.84
2022-12-13T18:08:18.398Z,87.74
2022-12-13T18:10:22.576Z,87.91
2022-12-13T18:13:06.763Z,87.56
2022-12-13T18:15:10.541Z,87.32
2022-12-13T18:17:12.040Z,86.55
2022-12-13T18:19:14.866Z,85.88
2022-12-13T18:21:17.904Z,85.75
2022-12-13T18:23:19.928Z,86.06
2022-12-13T18:25:21.389Z,86.16
2022-12-13T18:27:22.914Z,86.20
2022-12-13T18:29:24.400Z,85.66
2022-12-13T18:31:26.147Z,85.58
2022-12-13T18:33:28.072Z,86.06
2022-12-13T18:35:30.045Z,85.37
2022-12-13T18:37:31.710Z,85.79
2022-12-13T18:39:34.839Z,85.50
2022-12-13T18:41:36.361Z,84.95
2022-12-13T18:43:38.227Z,86.07
2022-12-13T18:45:39.685Z,85.51
2022-12-13T18:47:41.359Z,84.97
2022-12-13T18:49:43.279Z,85.44
2022-12-13T18:51:56.283Z,85.35
2022-12-13T18:53:58.308Z,84.80
2022-12-13T18:56:05.208Z,85.58
2022-12-13T18:58:06.636Z,84.44
2022-12-13T19:00:09.071Z,85.02
2022-12-13T19:02:14.375Z,85.01
2022-12-13T19:04:15.830Z,84.85
2022-12-13T19:06:19.879Z,84.09
2022-12-13T19:08:26.011Z,84.58
2022-12-13T19:10:27.795Z,84.07
2022-12-13T19:12:29.451Z,84.31
2022-12-13T19:14:30.890Z,84.43
2022-12-13T19:16:32.662Z,84.31
2022-12-13T19:18:35.333Z,83.99
2022-12-13T19:20:37.117Z,84.31
2022-12-13T19:22:39.350Z,84.62
2022-12-13T19:24:40.862Z,83.99
2022-12-13T19:26:42.393Z,84.10
2022-12-13T19:28:44.238Z,84.31
2022-12-13T19:30:47.653Z,83.79
2022-12-13T19:32:49.806Z,83.84
2022-12-13T19:34:51.255Z,83.31
2022-12-13T19:36:52.761Z,83.51
2022-12-13T19:38:55.916Z,83.17
2022-12-13T19:40:57.465Z,83.52
2022-12-13T19:42:58.934Z,83.19
2022-12-13T19:45:00.365Z,83.20
2022-12-13T19:47:01.870Z,82.77
2022-12-13T19:49:04.253Z,83.19
2022-12-13T19:51:08.170Z,83.59
2022-12-13T19:53:10.307Z,82.79
2022-12-13T19:55:11.840Z,83.00
2022-12-13T19:57:13.626Z,83.24
2022-12-13T19:59:15.087Z,83.34
2022-12-13T20:01:17.864Z,82.90
2022-12-13T20:03:19.366Z,83.01
2022-12-13T20:05:21.000Z,82.65
2022-12-13T20:07:23.816Z,83.05
2022-12-13T20:09:25.369Z,82.82
2022-12-13T20:11:26.951Z,82.99
2022-12-13T20:13:29.221Z,83.26
2022-12-13T20:15:31.087Z,83.36
2022-12-13T20:17:32.621Z,83.27
2022-12-13T20:19:34.045Z,83.21
2022-12-13T20:21:35.611Z,83.53
2022-12-13T20:23:38.310Z,82.91
2022-12-13T20:25:40.081Z,83.13
2022-12-13T20:27:41.852Z,83.40
2022-12-13T20:29:43.323Z,83.35
2022-12-13T20:31:52.098Z,82.78
2022-12-13T20:33:59.419Z,82.75
2022-12-13T20:36:25.164Z,83.16
2022-12-13T20:38:27.550Z,82.66
2022-12-13T20:40:29.024Z,82.40
2022-12-13T20:42:30.546Z,82.69
2022-12-13T20:44:32.171Z,83.15
2022-12-13T20:46:34.103Z,82.51
2022-12-13T20:48:38.853Z,82.95
2022-12-13T20:50:40.302Z,83.28
2022-12-13T20:52:44.131Z,83.19
2022-12-13T20:54:49.178Z,83.13
2022-12-13T20:56:51.123Z,83.14
2022-12-13T20:58:52.924Z,83.06
2022-12-13T21:00:54.850Z,83.11
2022-12-13T21:02:56.322Z,82.99
2022-12-13T21:04:57.784Z,82.73
2022-12-13T21:06:59.595Z,82.84
2022-12-13T21:09:03.010Z,83.10
2022-12-13T21:11:23.758Z,83.04
2022-12-13T21:13:25.613Z,82.85
2022-12-13T21:15:27.383Z,83.03
2022-12-13T21:17:28.819Z,83.17
2022-12-13T21:19:39.039Z,82.90
2022-12-13T21:21:41.429Z,83.19
2022-12-13T21:23:42.997Z,82.92
2022-12-13T21:25:44.445Z,82.54
2022-12-13T21:27:49.593Z,82.73
2022-12-13T21:29:51.015Z,83.07
2022-12-13T21:31:53.301Z,82.98
2022-12-13T21:33:57.607Z,83.15
2022-12-13T21:36:18.266Z,83.03
2022-12-13T21:38:19.783Z,83.24
2022-12-13T21:40:22.551Z,82.78
2022-12-13T21:42:24.004Z,82.82
2022-12-13T21:44:25.569Z,82.91
2022-12-13T21:46:54.758Z,82.56
2022-12-13T21:48:51.879Z,82.78
2022-12-13T21:50:53.326Z,82.71
2022-12-13T21:52:54.764Z,82.78
2022-12-13T21:55:15.170Z,82.70
2022-12-13T21:57:36.290Z,82.72
2022-12-13T21:59:37.730Z,82.64
2022-12-13T22:02:13.071Z,82.48
2022-12-13T22:04:15.922Z,82.30
2022-12-13T22:06:17.474Z,82.64
2022-12-13T22:08:19.056Z,82.51
2022-12-13T22:10:20.521Z,82.44
2022-12-13T22:12:30.893Z,82.40
2022-12-13T22:14:32.378Z,82.45
2022-12-13T22:16:34.025Z,82.66
2022-12-13T22:18:35.515Z,82.68
2022-12-13T22:20:37.020Z,82.51
2022-12-13T22:22:40.165Z,82.79
2022-12-13T22:24:41.602Z,82.60
2022-12-13T22:26:43.106Z,82.64
2022-12-13T22:28:44.962Z,82.41
2022-12-13T22:30:53.702Z,82.47
2022-12-13T22:32:55.051Z,82.78
2022-12-13T22:34:57.117Z,83.02
2022-12-13T22:36:59.256Z,82.91
2022-12-13T22:39:00.971Z,82.70
2022-12-13T22:41:04.203Z,82.60
2022-12-13T22:43:05.652Z,82.71
2022-12-13T22:45:07.387Z,82.81
2022-12-13T22:47:08.895Z,82.59
2022-12-13T22:49:11.473Z,82.76
2022-12-13T22:51:15.461Z,82.66
2022-12-13T22:53:16.902Z,82.76
2022-12-13T22:55:18.320Z,82.73
2022-12-13T22:57:19.778Z,82.71
2022-12-13T22:59:21.255Z,82.86
2022-12-13T23:01:27.997Z,82.67
2022-12-13T23:03:29.466Z,82.67
2022-12-13T23:05:30.904Z,82.71
2022-12-13T23:07:32.405Z,82.70
2022-12-13T23:09:33.956Z,82.76
2022-12-13T23:11:54.069Z,82.59
2022-12-13T23:13:58.643Z,82.59
2022-12-13T23:16:00.078Z,82.58
2022-12-13T23:18:01.505Z,82.57
2022-12-13T23:20:04.408Z,82.29
2022-12-13T23:22:08.417Z,82.57
2022-12-13T23:24:10.781Z,82.77
2022-12-13T23:26:19.554Z,82.93
2022-12-13T23:28:20.982Z,82.83
2022-12-13T23:30:22.502Z,82.98
2022-12-13T23:32:24.001Z,82.79
2022-12-13T23:34:25.454Z,82.56
2022-12-13T23:36:29.278Z,82.42
2022-12-13T23:38:31.501Z,82.40
2022-12-13T23:40:33.041Z,82.03
2022-12-13T23:42:34.485Z,82.18
2022-12-13T23:44:36.181Z,82.23
2022-12-13T23:46:37.874Z,82.03
2022-12-13T23:48:39.648Z,82.26
2022-12-13T23:50:41.588Z,81.66
2022-12-13T23:52:43.151Z,82.01
2022-12-13T23:54:44.634Z,81.92
2022-12-13T23:56:47.198Z,81.82
2022-12-13T23:58:49.090Z,82.01
